Etusivu
METAR-TAF:

METAR-TAF

Lentoasemat :

Fritzlar, Saksa

Leveyspiiri: 51-07N, Pituuspiiri: 009-17E, korkeus merenpinnasta: 172 m

Tämänhetkinen sää

Tämä raportti tehtiin 50 minuuttia sitten, kello 05.20 UTC
Tuuli 2 kn idästä/kaakosta
Lämpötila 1°C
Kosteus 100%
Ilmanpaine 1030 hPa
Näkyvyys: 0300 m
Muutamia pilviä 14000 ft:n korkeudessa
sumua

METAR: ETHF 210520Z 11002KT 0300 FG FEW140 01/01 Q1030 RED

Aika: 08:10 (06:10 UTC)


TAF: puuttuu

Säähavainnot ja -ennusteet yli 4000 lentoasemalta (METAR- ja TAF-raportit).

Käytössä olevat sääasemat on merkitty karttaan keltaisilla ja punaisilla pisteillä.

Aseta hiiri pisteen päälle nähdäksesi sääaseman nimen.

Klikkaa sitten nähdäksesi säähavainnot ja -ennusteet.

Kartan vaihtaminen: klikkaa mustalla rastilla varustettuja vihreitä pisteitä, niin voit zoomata sisään; viivalla varustettua vihreää pistettä, niin voit zoomata ulos tai vihreitä nuolia, niin pääset viereisille kartoille.


METAR-TAF: